sensor_id;sensor_type;location;lat;lon;timestamp;P1;durP1;ratioP1;P2;durP2;ratioP2
18610;SDS011;9435;52.122;5.502;2024-01-07T00:00:31;44.95;;;19.55;;
18610;SDS011;9435;52.122;5.502;2024-01-07T00:02:58;47.97;;;19.23;;
18610;SDS011;9435;52.122;5.502;2024-01-07T00:05:26;44.13;;;19.02;;
18610;SDS011;9435;52.122;5.502;2024-01-07T00:07:53;45.15;;;19.65;;
18610;SDS011;9435;52.122;5.502;2024-01-07T00:10:20;42.83;;;18.70;;
18610;SDS011;9435;52.122;5.502;2024-01-07T00:12:47;45.10;;;18.67;;
18610;SDS011;9435;52.122;5.502;2024-01-07T00:15:17;40.85;;;17.67;;
18610;SDS011;9435;52.122;5.502;2024-01-07T00:17:44;44.10;;;18.98;;
18610;SDS011;9435;52.122;5.502;2024-01-07T00:20:11;43.13;;;18.88;;
18610;SDS011;9435;52.122;5.502;2024-01-07T00:22:39;41.80;;;18.58;;
18610;SDS011;9435;52.122;5.502;2024-01-07T00:25:07;45.70;;;19.75;;
18610;SDS011;9435;52.122;5.502;2024-01-07T00:27:34;44.60;;;18.65;;
18610;SDS011;9435;52.122;5.502;2024-01-07T00:30:01;42.42;;;18.42;;
18610;SDS011;9435;52.122;5.502;2024-01-07T00:32:29;44.08;;;19.33;;
18610;SDS011;9435;52.122;5.502;2024-01-07T00:34:56;41.85;;;17.58;;
18610;SDS011;9435;52.122;5.502;2024-01-07T00:37:23;44.05;;;18.67;;
18610;SDS011;9435;52.122;5.502;2024-01-07T00:39:51;42.67;;;18.52;;
18610;SDS011;9435;52.122;5.502;2024-01-07T00:42:18;49.53;;;18.92;;
18610;SDS011;9435;52.122;5.502;2024-01-07T00:44:45;42.17;;;18.42;;
18610;SDS011;9435;52.122;5.502;2024-01-07T00:47:12;39.65;;;17.73;;
18610;SDS011;9435;52.122;5.502;2024-01-07T00:49:39;42.65;;;17.92;;
18610;SDS011;9435;52.122;5.502;2024-01-07T00:52:07;44.72;;;18.75;;
18610;SDS011;9435;52.122;5.502;2024-01-07T00:54:34;38.30;;;17.38;;
18610;SDS011;9435;52.122;5.502;2024-01-07T00:57:05;43.97;;;18.55;;
18610;SDS011;9435;52.122;5.502;2024-01-07T00:59:32;40.85;;;17.52;;
18610;SDS011;9435;52.122;5.502;2024-01-07T01:02:00;43.60;;;19.58;;
18610;SDS011;9435;52.122;5.502;2024-01-07T01:04:27;46.47;;;19.42;;
18610;SDS011;9435;52.122;5.502;2024-01-07T01:06:54;44.88;;;19.08;;
18610;SDS011;9435;52.122;5.502;2024-01-07T01:09:21;44.72;;;18.48;;
18610;SDS011;9435;52.122;5.502;2024-01-07T01:11:48;45.60;;;19.17;;
18610;SDS011;9435;52.122;5.502;2024-01-07T01:14:17;49.75;;;20.30;;
18610;SDS011;9435;52.122;5.502;2024-01-07T01:16:44;45.83;;;19.70;;
18610;SDS011;9435;52.122;5.502;2024-01-07T01:19:11;53.53;;;20.33;;
18610;SDS011;9435;52.122;5.502;2024-01-07T01:21:38;46.63;;;19.30;;
18610;SDS011;9435;52.122;5.502;2024-01-07T01:24:05;49.63;;;21.05;;
18610;SDS011;9435;52.122;5.502;2024-01-07T01:26:32;50.80;;;20.52;;
18610;SDS011;9435;52.122;5.502;2024-01-07T01:28:59;52.05;;;21.45;;
18610;SDS011;9435;52.122;5.502;2024-01-07T01:31:28;49.13;;;20.92;;
18610;SDS011;9435;52.122;5.502;2024-01-07T01:33:55;53.85;;;20.90;;
18610;SDS011;9435;52.122;5.502;2024-01-07T01:36:22;53.22;;;21.55;;
18610;SDS011;9435;52.122;5.502;2024-01-07T01:38:49;53.33;;;21.55;;
18610;SDS011;9435;52.122;5.502;2024-01-07T01:41:16;53.22;;;20.83;;
18610;SDS011;9435;52.122;5.502;2024-01-07T01:43:43;54.83;;;21.55;;
18610;SDS011;9435;52.122;5.502;2024-01-07T01:46:11;58.42;;;22.42;;
18610;SDS011;9435;52.122;5.502;2024-01-07T01:48:41;53.05;;;21.85;;
18610;SDS011;9435;52.122;5.502;2024-01-07T01:51:08;53.00;;;21.70;;
18610;SDS011;9435;52.122;5.502;2024-01-07T01:53:36;56.63;;;21.52;;
18610;SDS011;9435;52.122;5.502;2024-01-07T01:56:04;54.03;;;21.77;;
18610;SDS011;9435;52.122;5.502;2024-01-07T01:58:32;51.67;;;21.85;;
18610;SDS011;9435;52.122;5.502;2024-01-07T02:00:59;54.25;;;22.52;;
18610;SDS011;9435;52.122;5.502;2024-01-07T02:03:26;55.35;;;22.35;;
18610;SDS011;9435;52.122;5.502;2024-01-07T02:05:55;55.10;;;23.02;;
18610;SDS011;9435;52.122;5.502;2024-01-07T02:08:23;50.00;;;21.33;;
18610;SDS011;9435;52.122;5.502;2024-01-07T02:10:51;54.03;;;21.63;;
18610;SDS011;9435;52.122;5.502;2024-01-07T02:13:19;50.03;;;21.52;;
18610;SDS011;9435;52.122;5.502;2024-01-07T02:15:46;52.72;;;21.05;;
18610;SDS011;9435;52.122;5.502;2024-01-07T02:18:13;50.65;;;21.10;;
18610;SDS011;9435;52.122;5.502;2024-01-07T02:20:40;45.97;;;20.33;;
18610;SDS011;9435;52.122;5.502;2024-01-07T02:23:09;48.38;;;20.88;;
18610;SDS011;9435;52.122;5.502;2024-01-07T02:25:37;50.47;;;22.05;;
18610;SDS011;9435;52.122;5.502;2024-01-07T02:28:05;48.35;;;21.30;;
18610;SDS011;9435;52.122;5.502;2024-01-07T02:30:32;52.55;;;22.27;;
18610;SDS011;9435;52.122;5.502;2024-01-07T02:33:00;55.97;;;23.08;;
18610;SDS011;9435;52.122;5.502;2024-01-07T02:35:29;51.97;;;21.95;;
18610;SDS011;9435;52.122;5.502;2024-01-07T02:37:56;52.20;;;21.25;;
18610;SDS011;9435;52.122;5.502;2024-01-07T02:40:23;54.05;;;22.60;;
18610;SDS011;9435;52.122;5.502;2024-01-07T02:42:52;55.92;;;22.55;;
18610;SDS011;9435;52.122;5.502;2024-01-07T02:45:21;53.33;;;22.63;;
18610;SDS011;9435;52.122;5.502;2024-01-07T02:47:48;53.95;;;23.42;;
18610;SDS011;9435;52.122;5.502;2024-01-07T02:50:15;52.85;;;21.90;;
18610;SDS011;9435;52.122;5.502;2024-01-07T02:52:42;51.47;;;22.08;;
18610;SDS011;9435;52.122;5.502;2024-01-07T02:55:09;52.00;;;22.05;;
18610;SDS011;9435;52.122;5.502;2024-01-07T02:57:36;48.80;;;22.02;;
18610;SDS011;9435;52.122;5.502;2024-01-07T03:00:05;53.03;;;22.58;;
18610;SDS011;9435;52.122;5.502;2024-01-07T03:02:33;56.90;;;23.08;;
18610;SDS011;9435;52.122;5.502;2024-01-07T03:05:00;52.22;;;22.35;;
18610;SDS011;9435;52.122;5.502;2024-01-07T03:07:27;53.65;;;22.50;;
18610;SDS011;9435;52.122;5.502;2024-01-07T03:09:54;52.50;;;23.08;;
18610;SDS011;9435;52.122;5.502;2024-01-07T03:12:21;51.53;;;22.52;;
18610;SDS011;9435;52.122;5.502;2024-01-07T03:14:49;52.55;;;22.88;;
18610;SDS011;9435;52.122;5.502;2024-01-07T03:17:17;51.58;;;22.13;;
18610;SDS011;9435;52.122;5.502;2024-01-07T03:19:44;53.70;;;22.85;;
18610;SDS011;9435;52.122;5.502;2024-01-07T03:22:11;52.85;;;21.85;;
18610;SDS011;9435;52.122;5.502;2024-01-07T03:24:38;57.10;;;22.55;;
18610;SDS011;9435;52.122;5.502;2024-01-07T03:27:05;47.63;;;20.98;;
18610;SDS011;9435;52.122;5.502;2024-01-07T03:29:32;49.67;;;20.52;;
18610;SDS011;9435;52.122;5.502;2024-01-07T03:32:01;55.88;;;22.67;;
18610;SDS011;9435;52.122;5.502;2024-01-07T03:34:29;50.10;;;21.00;;
18610;SDS011;9435;52.122;5.502;2024-01-07T03:36:56;55.40;;;22.73;;
18610;SDS011;9435;52.122;5.502;2024-01-07T03:39:24;56.25;;;22.77;;
18610;SDS011;9435;52.122;5.502;2024-01-07T03:41:54;53.67;;;22.13;;
18610;SDS011;9435;52.122;5.502;2024-01-07T03:44:21;56.53;;;22.67;;
18610;SDS011;9435;52.122;5.502;2024-01-07T03:46:48;58.45;;;23.67;;
18610;SDS011;9435;52.122;5.502;2024-01-07T03:49:16;59.22;;;22.90;;
18610;SDS011;9435;52.122;5.502;2024-01-07T03:51:45;57.67;;;23.73;;
18610;SDS011;9435;52.122;5.502;2024-01-07T03:54:12;54.67;;;21.88;;
18610;SDS011;9435;52.122;5.502;2024-01-07T03:56:39;56.08;;;22.42;;
18610;SDS011;9435;52.122;5.502;2024-01-07T03:59:06;56.45;;;24.00;;
18610;SDS011;9435;52.122;5.502;2024-01-07T04:01:33;57.28;;;23.75;;
18610;SDS011;9435;52.122;5.502;2024-01-07T04:04:00;53.13;;;22.25;;
18610;SDS011;9435;52.122;5.502;2024-01-07T04:06:28;58.60;;;23.65;;
18610;SDS011;9435;52.122;5.502;2024-01-07T04:08:57;55.70;;;23.77;;
18610;SDS011;9435;52.122;5.502;2024-01-07T04:11:24;55.25;;;23.67;;
18610;SDS011;9435;52.122;5.502;2024-01-07T04:13:51;56.70;;;24.70;;
18610;SDS011;9435;52.122;5.502;2024-01-07T04:16:18;53.53;;;22.80;;
18610;SDS011;9435;52.122;5.502;2024-01-07T04:18:45;57.95;;;23.65;;
18610;SDS011;9435;52.122;5.502;2024-01-07T04:21:13;51.97;;;22.73;;
18610;SDS011;9435;52.122;5.502;2024-01-07T04:23:40;50.55;;;21.40;;
18610;SDS011;9435;52.122;5.502;2024-01-07T04:26:08;52.22;;;21.67;;
18610;SDS011;9435;52.122;5.502;2024-01-07T04:28:36;43.47;;;20.30;;
18610;SDS011;9435;52.122;5.502;2024-01-07T04:31:04;49.15;;;21.23;;
18610;SDS011;9435;52.122;5.502;2024-01-07T04:33:31;50.15;;;20.42;;
18610;SDS011;9435;52.122;5.502;2024-01-07T04:35:58;44.05;;;19.25;;
18610;SDS011;9435;52.122;5.502;2024-01-07T04:38:26;44.80;;;19.75;;
18610;SDS011;9435;52.122;5.502;2024-01-07T04:40:53;40.20;;;18.35;;
18610;SDS011;9435;52.122;5.502;2024-01-07T04:43:21;40.03;;;17.75;;
18610;SDS011;9435;52.122;5.502;2024-01-07T04:45:48;38.35;;;17.58;;
18610;SDS011;9435;52.122;5.502;2024-01-07T04:48:15;39.65;;;17.70;;
18610;SDS011;9435;52.122;5.502;2024-01-07T04:50:42;41.67;;;18.73;;
18610;SDS011;9435;52.122;5.502;2024-01-07T04:53:10;39.15;;;18.10;;
18610;SDS011;9435;52.122;5.502;2024-01-07T04:55:37;40.63;;;17.45;;
18610;SDS011;9435;52.122;5.502;2024-01-07T04:58:04;40.22;;;16.67;;
18610;SDS011;9435;52.122;5.502;2024-01-07T05:00:32;41.90;;;18.15;;
18610;SDS011;9435;52.122;5.502;2024-01-07T05:02:59;38.35;;;17.65;;
18610;SDS011;9435;52.122;5.502;2024-01-07T05:05:27;37.83;;;17.83;;
18610;SDS011;9435;52.122;5.502;2024-01-07T05:07:54;36.35;;;16.17;;
18610;SDS011;9435;52.122;5.502;2024-01-07T05:10:24;39.20;;;17.00;;
18610;SDS011;9435;52.122;5.502;2024-01-07T05:12:51;38.55;;;17.35;;
18610;SDS011;9435;52.122;5.502;2024-01-07T05:15:18;38.13;;;16.98;;
18610;SDS011;9435;52.122;5.502;2024-01-07T05:17:46;35.55;;;16.25;;
18610;SDS011;9435;52.122;5.502;2024-01-07T05:20:14;37.85;;;16.83;;
18610;SDS011;9435;52.122;5.502;2024-01-07T05:22:42;36.95;;;16.75;;
18610;SDS011;9435;52.122;5.502;2024-01-07T05:25:09;32.97;;;15.57;;
18610;SDS011;9435;52.122;5.502;2024-01-07T05:27:36;33.85;;;15.80;;
18610;SDS011;9435;52.122;5.502;2024-01-07T05:30:03;31.70;;;14.63;;
18610;SDS011;9435;52.122;5.502;2024-01-07T05:32:32;34.97;;;15.65;;
18610;SDS011;9435;52.122;5.502;2024-01-07T05:35:01;32.22;;;14.98;;
18610;SDS011;9435;52.122;5.502;2024-01-07T05:37:29;33.50;;;15.68;;
18610;SDS011;9435;52.122;5.502;2024-01-07T05:39:56;37.17;;;16.55;;
18610;SDS011;9435;52.122;5.502;2024-01-07T05:42:23;32.90;;;15.45;;
18610;SDS011;9435;52.122;5.502;2024-01-07T05:44:50;32.72;;;15.23;;
18610;SDS011;9435;52.122;5.502;2024-01-07T05:47:17;33.78;;;15.63;;
18610;SDS011;9435;52.122;5.502;2024-01-07T05:49:44;31.63;;;14.50;;
18610;SDS011;9435;52.122;5.502;2024-01-07T05:52:13;32.63;;;15.55;;
18610;SDS011;9435;52.122;5.502;2024-01-07T05:54:40;27.92;;;13.52;;
18610;SDS011;9435;52.122;5.502;2024-01-07T05:57:07;31.73;;;14.35;;
18610;SDS011;9435;52.122;5.502;2024-01-07T05:59:34;29.17;;;13.82;;
18610;SDS011;9435;52.122;5.502;2024-01-07T06:02:01;33.50;;;14.90;;
18610;SDS011;9435;52.122;5.502;2024-01-07T06:04:29;31.83;;;14.05;;
18610;SDS011;9435;52.122;5.502;2024-01-07T06:06:56;29.10;;;14.63;;
18610;SDS011;9435;52.122;5.502;2024-01-07T06:09:25;31.85;;;15.15;;
18610;SDS011;9435;52.122;5.502;2024-01-07T06:11:52;32.42;;;14.90;;
18610;SDS011;9435;52.122;5.502;2024-01-07T06:14:20;32.90;;;15.50;;
18610;SDS011;9435;52.122;5.502;2024-01-07T06:16:47;31.13;;;14.63;;
18610;SDS011;9435;52.122;5.502;2024-01-07T06:19:16;31.98;;;15.18;;
18610;SDS011;9435;52.122;5.502;2024-01-07T06:21:43;33.38;;;15.43;;
18610;SDS011;9435;52.122;5.502;2024-01-07T06:24:10;32.33;;;15.30;;
18610;SDS011;9435;52.122;5.502;2024-01-07T06:26:39;33.45;;;15.93;;
18610;SDS011;9435;52.122;5.502;2024-01-07T06:29:07;34.15;;;16.27;;
18610;SDS011;9435;52.122;5.502;2024-01-07T06:31:34;32.50;;;15.35;;
18610;SDS011;9435;52.122;5.502;2024-01-07T06:34:01;32.13;;;14.32;;
18610;SDS011;9435;52.122;5.502;2024-01-07T06:36:28;28.40;;;14.05;;
18610;SDS011;9435;52.122;5.502;2024-01-07T06:38:55;28.65;;;13.48;;
18610;SDS011;9435;52.122;5.502;2024-01-07T06:41:23;27.85;;;13.77;;
18610;SDS011;9435;52.122;5.502;2024-01-07T06:43:51;29.33;;;13.75;;
18610;SDS011;9435;52.122;5.502;2024-01-07T06:46:22;30.50;;;14.45;;
18610;SDS011;9435;52.122;5.502;2024-01-07T06:48:49;29.23;;;13.65;;
18610;SDS011;9435;52.122;5.502;2024-01-07T06:51:16;28.60;;;13.38;;
18610;SDS011;9435;52.122;5.502;2024-01-07T06:53:43;28.85;;;14.35;;
18610;SDS011;9435;52.122;5.502;2024-01-07T06:56:10;29.38;;;14.70;;
18610;SDS011;9435;52.122;5.502;2024-01-07T06:58:37;28.00;;;13.60;;
18610;SDS011;9435;52.122;5.502;2024-01-07T07:01:07;33.13;;;15.00;;
18610;SDS011;9435;52.122;5.502;2024-01-07T07:03:35;31.88;;;15.15;;
18610;SDS011;9435;52.122;5.502;2024-01-07T07:06:02;31.15;;;15.48;;
18610;SDS011;9435;52.122;5.502;2024-01-07T07:08:30;30.23;;;14.70;;
18610;SDS011;9435;52.122;5.502;2024-01-07T07:10:57;31.75;;;15.30;;
18610;SDS011;9435;52.122;5.502;2024-01-07T07:13:24;32.72;;;15.75;;
18610;SDS011;9435;52.122;5.502;2024-01-07T07:15:51;32.47;;;15.90;;
18610;SDS011;9435;52.122;5.502;2024-01-07T07:18:19;31.75;;;15.70;;
18610;SDS011;9435;52.122;5.502;2024-01-07T07:20:46;32.22;;;15.20;;
18610;SDS011;9435;52.122;5.502;2024-01-07T07:23:14;30.88;;;13.93;;
18610;SDS011;9435;52.122;5.502;2024-01-07T07:25:41;31.08;;;15.50;;
18610;SDS011;9435;52.122;5.502;2024-01-07T07:28:08;29.67;;;15.50;;
18610;SDS011;9435;52.122;5.502;2024-01-07T07:30:35;31.63;;;14.63;;
18610;SDS011;9435;52.122;5.502;2024-01-07T07:33:04;32.85;;;15.90;;
18610;SDS011;9435;52.122;5.502;2024-01-07T07:35:35;30.38;;;15.02;;
18610;SDS011;9435;52.122;5.502;2024-01-07T07:38:05;33.15;;;15.40;;
18610;SDS011;9435;52.122;5.502;2024-01-07T07:40:35;32.15;;;14.52;;
18610;SDS011;9435;52.122;5.502;2024-01-07T07:43:02;29.50;;;14.23;;
18610;SDS011;9435;52.122;5.502;2024-01-07T07:45:29;32.75;;;14.25;;
18610;SDS011;9435;52.122;5.502;2024-01-07T07:47:59;31.52;;;14.88;;
18610;SDS011;9435;52.122;5.502;2024-01-07T07:50:26;30.95;;;15.73;;
18610;SDS011;9435;52.122;5.502;2024-01-07T07:52:54;32.05;;;15.60;;
18610;SDS011;9435;52.122;5.502;2024-01-07T07:55:22;31.55;;;15.32;;
18610;SDS011;9435;52.122;5.502;2024-01-07T07:57:49;33.58;;;15.40;;
18610;SDS011;9435;52.122;5.502;2024-01-07T08:00:17;27.38;;;13.05;;
18610;SDS011;9435;52.122;5.502;2024-01-07T08:02:44;27.95;;;13.32;;
18610;SDS011;9435;52.122;5.502;2024-01-07T08:05:11;29.63;;;13.73;;
18610;SDS011;9435;52.122;5.502;2024-01-07T08:07:39;27.00;;;12.70;;
18610;SDS011;9435;52.122;5.502;2024-01-07T08:10:08;23.05;;;11.32;;
18610;SDS011;9435;52.122;5.502;2024-01-07T08:12:35;22.77;;;11.63;;
18610;SDS011;9435;52.122;5.502;2024-01-07T08:15:02;21.45;;;11.50;;
18610;SDS011;9435;52.122;5.502;2024-01-07T08:17:31;21.25;;;10.73;;
18610;SDS011;9435;52.122;5.502;2024-01-07T08:19:58;17.63;;;9.35;;
18610;SDS011;9435;52.122;5.502;2024-01-07T08:22:26;22.90;;;10.35;;
18610;SDS011;9435;52.122;5.502;2024-01-07T08:24:53;20.27;;;10.70;;
18610;SDS011;9435;52.122;5.502;2024-01-07T08:27:22;21.13;;;10.48;;
18610;SDS011;9435;52.122;5.502;2024-01-07T08:29:49;19.80;;;10.25;;
18610;SDS011;9435;52.122;5.502;2024-01-07T08:32:16;19.95;;;10.57;;
18610;SDS011;9435;52.122;5.502;2024-01-07T08:34:44;21.58;;;10.95;;
18610;SDS011;9435;52.122;5.502;2024-01-07T08:37:11;23.10;;;10.43;;
18610;SDS011;9435;52.122;5.502;2024-01-07T08:39:38;22.20;;;11.30;;
18610;SDS011;9435;52.122;5.502;2024-01-07T08:42:06;21.88;;;10.30;;
18610;SDS011;9435;52.122;5.502;2024-01-07T08:44:35;21.35;;;9.68;;
18610;SDS011;9435;52.122;5.502;2024-01-07T08:47:02;21.58;;;9.23;;
18610;SDS011;9435;52.122;5.502;2024-01-07T08:49:30;19.63;;;10.27;;
18610;SDS011;9435;52.122;5.502;2024-01-07T08:51:58;19.00;;;9.52;;
18610;SDS011;9435;52.122;5.502;2024-01-07T08:54:25;18.75;;;9.55;;
18610;SDS011;9435;52.122;5.502;2024-01-07T08:56:52;19.88;;;8.77;;
18610;SDS011;9435;52.122;5.502;2024-01-07T08:59:19;24.02;;;10.00;;
18610;SDS011;9435;52.122;5.502;2024-01-07T09:01:48;20.98;;;10.18;;
18610;SDS011;9435;52.122;5.502;2024-01-07T09:04:15;21.40;;;9.50;;
18610;SDS011;9435;52.122;5.502;2024-01-07T09:06:42;19.73;;;9.38;;
18610;SDS011;9435;52.122;5.502;2024-01-07T09:09:10;20.08;;;9.50;;
18610;SDS011;9435;52.122;5.502;2024-01-07T09:11:38;18.80;;;8.70;;
18610;SDS011;9435;52.122;5.502;2024-01-07T09:14:05;20.23;;;9.68;;
18610;SDS011;9435;52.122;5.502;2024-01-07T09:16:33;22.40;;;10.48;;
18610;SDS011;9435;52.122;5.502;2024-01-07T09:19:01;23.05;;;10.25;;
18610;SDS011;9435;52.122;5.502;2024-01-07T09:21:29;21.58;;;10.15;;
18610;SDS011;9435;52.122;5.502;2024-01-07T09:23:56;20.27;;;9.98;;
18610;SDS011;9435;52.122;5.502;2024-01-07T09:26:23;17.65;;;9.13;;
18610;SDS011;9435;52.122;5.502;2024-01-07T09:28:50;19.35;;;9.27;;
18610;SDS011;9435;52.122;5.502;2024-01-07T09:31:17;21.45;;;10.38;;
18610;SDS011;9435;52.122;5.502;2024-01-07T09:33:44;20.55;;;9.98;;
18610;SDS011;9435;52.122;5.502;2024-01-07T09:36:12;19.95;;;9.57;;
18610;SDS011;9435;52.122;5.502;2024-01-07T09:38:41;21.48;;;10.48;;
18610;SDS011;9435;52.122;5.502;2024-01-07T09:41:08;21.38;;;10.15;;
18610;SDS011;9435;52.122;5.502;2024-01-07T09:43:35;23.02;;;10.70;;
18610;SDS011;9435;52.122;5.502;2024-01-07T09:46:03;20.48;;;9.98;;
18610;SDS011;9435;52.122;5.502;2024-01-07T09:48:30;21.33;;;9.38;;
18610;SDS011;9435;52.122;5.502;2024-01-07T09:50:57;20.95;;;9.40;;
18610;SDS011;9435;52.122;5.502;2024-01-07T09:53:30;19.17;;;8.52;;
18610;SDS011;9435;52.122;5.502;2024-01-07T09:56:01;19.08;;;7.78;;
18610;SDS011;9435;52.122;5.502;2024-01-07T09:58:38;13.27;;;6.57;;
18610;SDS011;9435;52.122;5.502;2024-01-07T10:01:09;15.13;;;6.50;;
18610;SDS011;9435;52.122;5.502;2024-01-07T10:03:36;14.75;;;6.55;;
18610;SDS011;9435;52.122;5.502;2024-01-07T10:06:04;14.32;;;6.38;;
18610;SDS011;9435;52.122;5.502;2024-01-07T10:08:33;11.18;;;5.45;;
18610;SDS011;9435;52.122;5.502;2024-01-07T10:11:02;11.15;;;5.55;;
18610;SDS011;9435;52.122;5.502;2024-01-07T10:13:31;14.45;;;6.30;;
18610;SDS011;9435;52.122;5.502;2024-01-07T10:15:58;14.60;;;6.43;;
18610;SDS011;9435;52.122;5.502;2024-01-07T10:18:25;11.63;;;5.40;;
18610;SDS011;9435;52.122;5.502;2024-01-07T10:20:56;11.90;;;5.45;;
18610;SDS011;9435;52.122;5.502;2024-01-07T10:23:29;10.32;;;5.38;;
18610;SDS011;9435;52.122;5.502;2024-01-07T10:25:58;12.77;;;5.70;;
18610;SDS011;9435;52.122;5.502;2024-01-07T10:28:27;11.07;;;5.45;;
18610;SDS011;9435;52.122;5.502;2024-01-07T10:30:54;10.57;;;4.93;;
18610;SDS011;9435;52.122;5.502;2024-01-07T10:33:21;14.43;;;5.20;;
18610;SDS011;9435;52.122;5.502;2024-01-07T10:35:51;10.88;;;4.88;;
18610;SDS011;9435;52.122;5.502;2024-01-07T10:38:21;9.55;;;4.60;;
18610;SDS011;9435;52.122;5.502;2024-01-07T10:40:49;11.55;;;4.95;;
18610;SDS011;9435;52.122;5.502;2024-01-07T10:43:21;11.00;;;5.47;;
18610;SDS011;9435;52.122;5.502;2024-01-07T10:45:48;9.70;;;4.82;;
18610;SDS011;9435;52.122;5.502;2024-01-07T10:48:17;9.82;;;4.82;;
18610;SDS011;9435;52.122;5.502;2024-01-07T10:50:45;8.40;;;4.25;;
18610;SDS011;9435;52.122;5.502;2024-01-07T10:53:17;10.80;;;4.15;;
18610;SDS011;9435;52.122;5.502;2024-01-07T10:55:48;10.98;;;4.45;;
18610;SDS011;9435;52.122;5.502;2024-01-07T10:58:22;10.35;;;4.03;;
18610;SDS011;9435;52.122;5.502;2024-01-07T11:00:50;9.90;;;4.68;;
18610;SDS011;9435;52.122;5.502;2024-01-07T11:03:20;9.82;;;4.60;;
18610;SDS011;9435;52.122;5.502;2024-01-07T11:05:56;9.50;;;3.92;;
18610;SDS011;9435;52.122;5.502;2024-01-07T11:08:29;9.50;;;4.38;;
18610;SDS011;9435;52.122;5.502;2024-01-07T11:11:03;9.55;;;3.80;;
18610;SDS011;9435;52.122;5.502;2024-01-07T11:13:35;9.40;;;3.92;;
18610;SDS011;9435;52.122;5.502;2024-01-07T11:16:03;8.82;;;4.20;;
18610;SDS011;9435;52.122;5.502;2024-01-07T11:18:37;7.00;;;3.67;;
18610;SDS011;9435;52.122;5.502;2024-01-07T11:21:05;8.93;;;3.90;;
18610;SDS011;9435;52.122;5.502;2024-01-07T11:23:32;9.60;;;3.45;;
18610;SDS011;9435;52.122;5.502;2024-01-07T11:26:02;7.57;;;2.88;;
18610;SDS011;9435;52.122;5.502;2024-01-07T11:28:43;8.27;;;3.85;;
18610;SDS011;9435;52.122;5.502;2024-01-07T11:31:11;6.80;;;3.45;;
18610;SDS011;9435;52.122;5.502;2024-01-07T11:33:38;7.63;;;3.20;;
18610;SDS011;9435;52.122;5.502;2024-01-07T11:36:08;8.23;;;3.38;;
18610;SDS011;9435;52.122;5.502;2024-01-07T11:38:37;5.70;;;2.80;;
18610;SDS011;9435;52.122;5.502;2024-01-07T11:41:04;6.32;;;3.10;;
18610;SDS011;9435;52.122;5.502;2024-01-07T11:43:32;4.38;;;2.28;;
18610;SDS011;9435;52.122;5.502;2024-01-07T11:46:01;5.97;;;2.88;;
18610;SDS011;9435;52.122;5.502;2024-01-07T11:48:29;8.05;;;2.80;;
18610;SDS011;9435;52.122;5.502;2024-01-07T11:50:56;6.30;;;2.63;;
18610;SDS011;9435;52.122;5.502;2024-01-07T11:53:23;4.70;;;2.40;;
18610;SDS011;9435;52.122;5.502;2024-01-07T11:55:50;5.13;;;2.20;;
18610;SDS011;9435;52.122;5.502;2024-01-07T11:58:18;4.85;;;2.50;;
18610;SDS011;9435;52.122;5.502;2024-01-07T12:00:45;8.52;;;2.95;;
18610;SDS011;9435;52.122;5.502;2024-01-07T12:03:14;5.13;;;2.50;;
18610;SDS011;9435;52.122;5.502;2024-01-07T12:05:41;10.18;;;3.08;;
18610;SDS011;9435;52.122;5.502;2024-01-07T12:08:08;7.72;;;2.80;;
18610;SDS011;9435;52.122;5.502;2024-01-07T12:10:35;5.65;;;2.60;;
18610;SDS011;9435;52.122;5.502;2024-01-07T12:13:03;6.80;;;2.60;;
18610;SDS011;9435;52.122;5.502;2024-01-07T12:15:31;4.50;;;2.30;;
18610;SDS011;9435;52.122;5.502;2024-01-07T12:17:59;5.57;;;2.45;;
18610;SDS011;9435;52.122;5.502;2024-01-07T12:20:28;7.07;;;2.60;;
18610;SDS011;9435;52.122;5.502;2024-01-07T12:22:56;5.10;;;2.33;;
18610;SDS011;9435;52.122;5.502;2024-01-07T12:25:24;5.45;;;2.70;;
18610;SDS011;9435;52.122;5.502;2024-01-07T12:27:51;6.40;;;2.85;;
18610;SDS011;9435;52.122;5.502;2024-01-07T12:30:19;7.18;;;2.53;;
18610;SDS011;9435;52.122;5.502;2024-01-07T12:32:46;6.57;;;2.40;;
18610;SDS011;9435;52.122;5.502;2024-01-07T12:35:13;4.20;;;2.20;;
18610;SDS011;9435;52.122;5.502;2024-01-07T12:37:43;4.82;;;2.17;;
18610;SDS011;9435;52.122;5.502;2024-01-07T12:40:11;4.15;;;2.05;;
18610;SDS011;9435;52.122;5.502;2024-01-07T12:42:39;9.23;;;2.40;;
18610;SDS011;9435;52.122;5.502;2024-01-07T12:45:10;4.53;;;1.98;;
18610;SDS011;9435;52.122;5.502;2024-01-07T12:47:39;3.63;;;1.90;;
18610;SDS011;9435;52.122;5.502;2024-01-07T12:50:07;4.55;;;2.05;;
18610;SDS011;9435;52.122;5.502;2024-01-07T12:52:35;4.82;;;2.00;;
18610;SDS011;9435;52.122;5.502;2024-01-07T12:55:05;5.25;;;2.05;;
18610;SDS011;9435;52.122;5.502;2024-01-07T12:57:33;4.13;;;1.88;;
18610;SDS011;9435;52.122;5.502;2024-01-07T13:00:01;10.68;;;2.00;;
18610;SDS011;9435;52.122;5.502;2024-01-07T13:02:31;6.28;;;1.92;;
18610;SDS011;9435;52.122;5.502;2024-01-07T13:04:59;3.90;;;1.80;;
18610;SDS011;9435;52.122;5.502;2024-01-07T13:07:26;5.40;;;2.10;;
18610;SDS011;9435;52.122;5.502;2024-01-07T13:09:53;4.32;;;1.98;;
18610;SDS011;9435;52.122;5.502;2024-01-07T13:12:22;5.93;;;1.60;;
18610;SDS011;9435;52.122;5.502;2024-01-07T13:14:49;4.15;;;1.60;;
18610;SDS011;9435;52.122;5.502;2024-01-07T13:17:16;3.33;;;1.60;;
18610;SDS011;9435;52.122;5.502;2024-01-07T13:19:43;2.92;;;1.70;;
18610;SDS011;9435;52.122;5.502;2024-01-07T13:22:10;3.83;;;1.80;;
18610;SDS011;9435;52.122;5.502;2024-01-07T13:24:38;3.38;;;1.70;;
18610;SDS011;9435;52.122;5.502;2024-01-07T13:27:06;4.20;;;1.60;;
18610;SDS011;9435;52.122;5.502;2024-01-07T13:29:35;3.40;;;1.80;;
18610;SDS011;9435;52.122;5.502;2024-01-07T13:32:03;4.22;;;1.98;;
18610;SDS011;9435;52.122;5.502;2024-01-07T13:34:30;3.58;;;1.63;;
18610;SDS011;9435;52.122;5.502;2024-01-07T13:36:58;5.32;;;2.00;;
18610;SDS011;9435;52.122;5.502;2024-01-07T13:39:25;4.90;;;1.77;;
18610;SDS011;9435;52.122;5.502;2024-01-07T13:41:52;5.55;;;1.80;;
18610;SDS011;9435;52.122;5.502;2024-01-07T13:44:19;3.13;;;1.70;;
18610;SDS011;9435;52.122;5.502;2024-01-07T13:46:48;4.00;;;1.80;;
18610;SDS011;9435;52.122;5.502;2024-01-07T13:49:17;3.50;;;1.50;;
18610;SDS011;9435;52.122;5.502;2024-01-07T13:51:44;3.22;;;1.73;;
18610;SDS011;9435;52.122;5.502;2024-01-07T13:54:11;3.80;;;1.80;;
18610;SDS011;9435;52.122;5.502;2024-01-07T13:56:39;3.25;;;1.50;;
18610;SDS011;9435;52.122;5.502;2024-01-07T13:59:09;5.30;;;1.90;;
18610;SDS011;9435;52.122;5.502;2024-01-07T14:01:36;5.60;;;1.60;;
18610;SDS011;9435;52.122;5.502;2024-01-07T14:04:05;4.60;;;2.03;;
18610;SDS011;9435;52.122;5.502;2024-01-07T14:06:32;3.53;;;1.60;;
18610;SDS011;9435;52.122;5.502;2024-01-07T14:09:00;3.00;;;1.70;;
18610;SDS011;9435;52.122;5.502;2024-01-07T14:11:28;2.88;;;1.58;;
18610;SDS011;9435;52.122;5.502;2024-01-07T14:13:55;3.53;;;1.60;;
18610;SDS011;9435;52.122;5.502;2024-01-07T14:16:22;4.88;;;1.90;;
18610;SDS011;9435;52.122;5.502;2024-01-07T14:18:49;4.57;;;1.90;;
18610;SDS011;9435;52.122;5.502;2024-01-07T14:21:17;3.70;;;1.55;;
18610;SDS011;9435;52.122;5.502;2024-01-07T14:23:45;3.45;;;1.85;;
18610;SDS011;9435;52.122;5.502;2024-01-07T14:26:12;4.32;;;1.70;;
18610;SDS011;9435;52.122;5.502;2024-01-07T14:28:40;4.18;;;1.67;;
18610;SDS011;9435;52.122;5.502;2024-01-07T14:31:07;4.32;;;1.70;;
18610;SDS011;9435;52.122;5.502;2024-01-07T14:33:34;4.10;;;1.88;;
18610;SDS011;9435;52.122;5.502;2024-01-07T14:36:02;4.28;;;1.70;;
18610;SDS011;9435;52.122;5.502;2024-01-07T14:38:31;4.07;;;1.83;;
18610;SDS011;9435;52.122;5.502;2024-01-07T14:40:58;6.72;;;1.98;;
18610;SDS011;9435;52.122;5.502;2024-01-07T14:43:25;7.03;;;2.00;;
18610;SDS011;9435;52.122;5.502;2024-01-07T14:45:52;3.20;;;1.80;;